createdAt,value
2022-12-29T00:00:15.069Z,10.52
2022-12-29T00:02:43.283Z,10.55
2022-12-29T00:05:11.041Z,10.60
2022-12-29T00:07:38.834Z,10.63
2022-12-29T00:10:06.477Z,10.64
2022-12-29T00:12:48.288Z,10.65
2022-12-29T00:15:33.482Z,10.65
2022-12-29T00:18:01.897Z,10.67
2022-12-29T00:20:47.068Z,10.71
2022-12-29T00:23:31.994Z,10.75
2022-12-29T00:26:17.582Z,10.81
2022-12-29T00:29:03.184Z,10.87
2022-12-29T00:31:48.191Z,10.86
2022-12-29T00:34:33.553Z,10.80
2022-12-29T00:37:01.478Z,10.76
2022-12-29T00:39:46.746Z,10.75
2022-12-29T00:42:31.917Z,10.76
2022-12-29T00:45:00.374Z,10.79
2022-12-29T00:47:28.043Z,10.85
2022-12-29T00:49:54.703Z,10.92
2022-12-29T00:52:22.312Z,10.96
2022-12-29T00:54:50.092Z,10.99
2022-12-29T00:57:18.319Z,11.01
2022-12-29T00:59:46.436Z,11.01
2022-12-29T01:02:14.184Z,10.97
2022-12-29T01:04:41.939Z,10.92
2022-12-29T01:07:09.580Z,10.90
2022-12-29T01:09:55.128Z,10.88
2022-12-29T01:12:41.754Z,10.82
2022-12-29T01:15:09.564Z,10.76
2022-12-29T01:17:37.264Z,10.73
2022-12-29T01:20:05.496Z,10.72
2022-12-29T01:22:33.227Z,10.67
2022-12-29T01:25:01.530Z,10.64
2022-12-29T01:27:29.095Z,10.62
2022-12-29T01:29:56.752Z,10.61
2022-12-29T01:32:24.747Z,10.60
2022-12-29T01:34:52.332Z,10.58
2022-12-29T01:37:19.982Z,10.55
2022-12-29T01:39:47.580Z,10.53
2022-12-29T01:42:15.519Z,10.52
2022-12-29T01:44:43.613Z,10.54
2022-12-29T01:47:11.395Z,10.59
2022-12-29T01:49:39.020Z,10.66
2022-12-29T01:52:06.650Z,10.70
2022-12-29T01:54:34.866Z,10.69
2022-12-29T01:57:02.803Z,10.63
2022-12-29T01:59:30.453Z,10.60
2022-12-29T02:01:58.056Z,10.57
2022-12-29T02:04:26.092Z,10.57
2022-12-29T02:06:53.709Z,10.57
2022-12-29T02:09:21.678Z,10.57
2022-12-29T02:11:49.512Z,10.57
2022-12-29T02:14:17.122Z,10.60
2022-12-29T02:16:44.733Z,10.65
2022-12-29T02:19:12.331Z,10.71
2022-12-29T02:21:40.301Z,10.75
2022-12-29T02:24:08.087Z,10.80
2022-12-29T02:26:36.067Z,10.86
2022-12-29T02:29:03.717Z,10.95
2022-12-29T02:31:31.356Z,11.01
2022-12-29T02:33:59.338Z,11.06
2022-12-29T02:36:26.989Z,11.07
2022-12-29T02:38:54.559Z,11.10
2022-12-29T02:41:22.172Z,11.13
2022-12-29T02:43:49.810Z,11.05
2022-12-29T02:46:17.910Z,10.96
2022-12-29T02:48:46.017Z,10.88
2022-12-29T02:51:13.635Z,10.83
2022-12-29T02:53:58.550Z,10.82
2022-12-29T02:56:26.506Z,10.86
2022-12-29T02:58:54.299Z,10.88
2022-12-29T03:01:22.037Z,10.93
2022-12-29T03:03:49.850Z,10.99
2022-12-29T03:06:17.492Z,11.08
2022-12-29T03:08:46.477Z,11.14
2022-12-29T03:11:27.869Z,11.23
2022-12-29T03:14:13.081Z,11.31
2022-12-29T03:16:40.785Z,11.37
2022-12-29T03:19:08.756Z,11.43
2022-12-29T03:21:54.108Z,11.50
2022-12-29T03:24:21.693Z,11.54
2022-12-29T03:26:49.319Z,11.59
2022-12-29T03:29:17.727Z,11.63
2022-12-29T03:31:46.118Z,11.66
2022-12-29T03:34:13.673Z,11.65
2022-12-29T03:36:41.837Z,11.61
2022-12-29T03:39:09.402Z,11.57
2022-12-29T03:41:37.245Z,11.52
2022-12-29T03:44:14.080Z,11.41
2022-12-29T03:46:42.060Z,11.24
2022-12-29T03:49:09.681Z,11.08
2022-12-29T03:51:37.962Z,10.96
2022-12-29T03:54:05.539Z,10.88
2022-12-29T03:56:33.108Z,10.85
2022-12-29T03:59:01.725Z,10.79
2022-12-29T04:01:29.350Z,10.77
2022-12-29T04:03:57.396Z,10.73
2022-12-29T04:06:25.005Z,10.70
2022-12-29T04:08:52.585Z,10.65
2022-12-29T04:11:20.361Z,10.61
2022-12-29T04:13:48.445Z,10.57
2022-12-29T04:16:16.151Z,10.57
2022-12-29T04:18:43.813Z,10.58
2022-12-29T04:21:11.453Z,10.60
2022-12-29T04:23:39.245Z,10.66
2022-12-29T04:26:07.473Z,10.72
2022-12-29T04:28:35.643Z,10.79
2022-12-29T04:31:03.490Z,10.88
2022-12-29T04:33:31.118Z,10.94
2022-12-29T04:36:00.401Z,11.00
2022-12-29T04:38:27.974Z,11.05
2022-12-29T04:40:55.940Z,11.10
2022-12-29T04:43:23.998Z,11.14
2022-12-29T04:45:51.557Z,11.15
2022-12-29T04:48:19.299Z,11.15
2022-12-29T04:50:46.983Z,11.13
2022-12-29T04:53:14.999Z,11.14
2022-12-29T04:55:42.576Z,11.18
2022-12-29T04:58:10.633Z,11.26
2022-12-29T05:00:38.394Z,11.35
2022-12-29T05:03:06.171Z,11.46
2022-12-29T05:05:34.388Z,11.55
2022-12-29T05:08:01.959Z,11.62
2022-12-29T05:10:29.581Z,11.68
2022-12-29T05:12:57.401Z,11.74
2022-12-29T05:15:24.990Z,11.78
2022-12-29T05:17:52.782Z,11.82
2022-12-29T05:20:20.424Z,11.86
2022-12-29T05:22:48.040Z,11.88
2022-12-29T05:25:16.041Z,11.86
2022-12-29T05:27:43.674Z,11.84
2022-12-29T05:30:11.339Z,11.87
2022-12-29T05:32:38.911Z,11.77
2022-12-29T05:35:06.563Z,11.70
2022-12-29T05:37:35.260Z,11.71
2022-12-29T05:40:02.848Z,11.79
2022-12-29T05:42:31.208Z,11.89
2022-12-29T05:44:58.790Z,11.97
2022-12-29T05:47:26.365Z,12.05
2022-12-29T05:49:54.019Z,12.12
2022-12-29T05:52:21.644Z,12.15
2022-12-29T05:54:49.632Z,12.18
2022-12-29T05:57:17.303Z,12.18
2022-12-29T05:59:44.899Z,12.20
2022-12-29T06:02:12.630Z,12.22
2022-12-29T06:04:40.897Z,12.22
2022-12-29T06:07:08.860Z,12.24
2022-12-29T06:09:36.460Z,12.28
2022-12-29T06:12:04.072Z,12.30
2022-12-29T06:14:31.647Z,12.30
2022-12-29T06:16:59.264Z,12.27
2022-12-29T06:19:27.288Z,12.23
2022-12-29T06:21:54.876Z,12.21
2022-12-29T06:24:22.430Z,12.21
2022-12-29T06:26:51.535Z,12.17
2022-12-29T06:29:19.157Z,12.15
2022-12-29T06:31:47.716Z,12.15
2022-12-29T06:34:15.393Z,12.16
2022-12-29T06:36:42.980Z,12.16
2022-12-29T06:39:10.768Z,12.16
2022-12-29T06:41:38.988Z,12.14
2022-12-29T06:44:06.963Z,12.12
2022-12-29T06:46:34.912Z,12.12
2022-12-29T06:49:02.580Z,12.11
2022-12-29T06:51:30.490Z,12.09
2022-12-29T06:53:58.089Z,12.07
2022-12-29T06:56:25.759Z,12.06
2022-12-29T06:58:53.336Z,12.05
2022-12-29T07:01:21.052Z,12.06
2022-12-29T07:03:49.001Z,12.07
2022-12-29T07:06:16.611Z,12.07
2022-12-29T07:08:44.653Z,12.12
2022-12-29T07:11:12.660Z,12.12
2022-12-29T07:13:40.253Z,12.13
2022-12-29T07:16:08.030Z,12.08
2022-12-29T07:18:35.682Z,11.90
2022-12-29T07:21:03.488Z,11.75
2022-12-29T07:23:31.137Z,11.64
2022-12-29T07:25:58.763Z,11.44
2022-12-29T07:28:26.577Z,11.29
2022-12-29T07:30:54.237Z,11.14
2022-12-29T07:33:22.220Z,11.00
2022-12-29T07:35:49.829Z,10.91
2022-12-29T07:38:17.655Z,10.84
2022-12-29T07:40:45.407Z,10.82
2022-12-29T07:43:13.023Z,10.84
2022-12-29T07:45:41.344Z,10.86
2022-12-29T07:48:09.601Z,10.89
2022-12-29T07:50:37.304Z,10.88
2022-12-29T07:53:05.210Z,10.80
2022-12-29T07:55:33.392Z,10.75
2022-12-29T07:58:01.360Z,10.68
2022-12-29T08:00:29.008Z,10.66
2022-12-29T08:02:56.685Z,10.64
2022-12-29T08:05:24.476Z,10.65
2022-12-29T08:07:52.134Z,10.68
2022-12-29T08:10:20.161Z,10.69
2022-12-29T08:12:47.785Z,10.71
2022-12-29T08:15:15.821Z,10.78
2022-12-29T08:17:43.528Z,10.85
2022-12-29T08:20:11.354Z,10.94
2022-12-29T08:22:39.452Z,11.04
2022-12-29T08:25:07.164Z,11.11
2022-12-29T08:27:34.819Z,11.19
2022-12-29T08:30:02.922Z,11.25
2022-12-29T08:32:30.666Z,11.26
2022-12-29T08:34:58.788Z,11.29
2022-12-29T08:37:31.108Z,11.31
2022-12-29T08:39:59.959Z,11.36
2022-12-29T08:42:32.169Z,11.43
2022-12-29T08:45:00.387Z,11.52
2022-12-29T08:47:28.060Z,11.58
2022-12-29T08:49:55.741Z,11.64
2022-12-29T08:52:24.059Z,11.67
2022-12-29T08:54:51.813Z,11.70
2022-12-29T08:57:19.841Z,11.73
2022-12-29T08:59:47.479Z,11.76
2022-12-29T09:02:20.377Z,11.78
2022-12-29T09:04:51.475Z,11.78
2022-12-29T09:07:19.389Z,11.78
2022-12-29T09:09:47.522Z,11.80
2022-12-29T09:12:15.256Z,11.84
2022-12-29T09:14:44.308Z,11.93
2022-12-29T09:17:29.196Z,11.98
2022-12-29T09:19:57.495Z,11.96
2022-12-29T09:22:25.242Z,11.87
2022-12-29T09:24:52.995Z,11.55
2022-12-29T09:27:20.752Z,11.17
2022-12-29T09:29:48.450Z,10.86
2022-12-29T09:32:18.968Z,10.49
2022-12-29T09:34:47.546Z,10.14
2022-12-29T09:37:15.196Z,9.87
2022-12-29T09:39:44.713Z,9.71
2022-12-29T09:42:14.300Z,9.60
2022-12-29T09:44:42.531Z,9.54
2022-12-29T09:47:10.301Z,9.48
2022-12-29T09:49:41.047Z,9.51
2022-12-29T09:52:08.823Z,9.58
2022-12-29T09:54:36.516Z,9.64
2022-12-29T09:57:04.592Z,9.87
2022-12-29T09:59:32.395Z,9.98
2022-12-29T10:02:00.469Z,10.09
2022-12-29T10:04:28.739Z,10.24
2022-12-29T10:07:27.861Z,10.38
2022-12-29T10:09:44.731Z,10.55
2022-12-29T10:12:12.402Z,10.67
2022-12-29T10:14:40.527Z,10.78
2022-12-29T10:17:08.506Z,10.88
2022-12-29T10:19:36.349Z,10.94
2022-12-29T10:22:06.134Z,10.98
2022-12-29T10:24:33.966Z,11.03
2022-12-29T10:27:01.563Z,11.07
2022-12-29T10:29:29.376Z,11.11
2022-12-29T10:31:57.349Z,11.19
2022-12-29T10:34:25.238Z,11.30
2022-12-29T10:36:53.024Z,11.38
2022-12-29T10:39:20.941Z,11.48
2022-12-29T10:41:48.784Z,11.49
2022-12-29T10:44:17.113Z,11.49
2022-12-29T10:46:45.571Z,11.49
2022-12-29T10:49:18.009Z,11.51
2022-12-29T10:51:49.164Z,11.52
2022-12-29T10:54:16.846Z,11.57
2022-12-29T10:56:46.675Z,11.59
2022-12-29T10:59:14.968Z,11.62
2022-12-29T11:01:43.197Z,11.65
2022-12-29T11:04:11.109Z,11.69
2022-12-29T11:06:39.135Z,11.68
2022-12-29T11:09:07.358Z,11.69
2022-12-29T11:11:35.246Z,11.74
2022-12-29T11:14:03.176Z,11.82
2022-12-29T11:16:31.967Z,11.85
2022-12-29T11:19:00.064Z,11.82
2022-12-29T11:21:28.884Z,11.78
2022-12-29T11:23:56.959Z,11.75
2022-12-29T11:26:30.206Z,11.74
2022-12-29T11:29:01.659Z,11.71
2022-12-29T11:31:29.768Z,11.68
2022-12-29T11:33:57.635Z,11.68
2022-12-29T11:36:25.590Z,11.66
2022-12-29T11:38:53.294Z,11.66
2022-12-29T11:41:21.164Z,11.66
2022-12-29T11:43:49.712Z,11.64
2022-12-29T11:46:17.708Z,11.65
2022-12-29T11:48:45.577Z,11.66
2022-12-29T11:51:13.669Z,11.66
2022-12-29T11:53:41.455Z,11.67
2022-12-29T11:56:09.917Z,11.67
2022-12-29T11:58:38.100Z,11.68
2022-12-29T12:01:06.019Z,11.65
2022-12-29T12:03:34.160Z,11.63
2022-12-29T12:06:02.186Z,11.63
2022-12-29T12:08:31.013Z,11.64
2022-12-29T12:10:59.277Z,11.64
2022-12-29T12:13:27.103Z,11.64
2022-12-29T12:15:57.114Z,11.65
2022-12-29T12:18:25.168Z,11.65
2022-12-29T12:20:53.859Z,11.66
2022-12-29T12:23:22.428Z,11.68
2022-12-29T12:25:50.322Z,11.66
2022-12-29T12:28:18.359Z,11.66
2022-12-29T12:30:46.610Z,11.66
2022-12-29T12:33:15.010Z,11.67
2022-12-29T12:35:43.306Z,11.66
2022-12-29T12:38:11.229Z,11.65
2022-12-29T12:40:39.546Z,11.63
2022-12-29T12:43:10.345Z,11.61
2022-12-29T12:45:38.542Z,11.59
2022-12-29T12:48:06.864Z,11.58
2022-12-29T12:50:34.801Z,11.57
2022-12-29T12:53:02.565Z,11.56
2022-12-29T12:55:30.283Z,11.55
2022-12-29T12:57:58.654Z,11.55
2022-12-29T13:00:26.737Z,11.54
2022-12-29T13:02:54.855Z,11.52
2022-12-29T13:05:26.910Z,11.50
2022-12-29T13:07:55.078Z,11.48
2022-12-29T13:10:23.397Z,11.49
2022-12-29T13:12:53.108Z,11.47
2022-12-29T13:15:21.594Z,11.47
2022-12-29T13:17:49.637Z,11.46
2022-12-29T13:20:17.388Z,11.46
2022-12-29T13:22:45.549Z,11.44
2022-12-29T13:25:13.537Z,11.45
2022-12-29T13:27:41.418Z,11.43
2022-12-29T13:30:09.303Z,11.42
2022-12-29T13:32:37.482Z,11.39
2022-12-29T13:35:06.057Z,11.36
2022-12-29T13:37:34.340Z,11.35
2022-12-29T13:40:02.276Z,11.34
2022-12-29T13:42:30.232Z,11.33
2022-12-29T13:44:58.171Z,11.34
2022-12-29T13:47:26.586Z,11.35
2022-12-29T13:49:54.693Z,11.34
2022-12-29T13:52:22.653Z,11.36
2022-12-29T13:54:50.552Z,11.35
2022-12-29T13:57:24.144Z,11.35
2022-12-29T13:59:56.079Z,11.34
2022-12-29T14:02:23.991Z,11.35
2022-12-29T14:04:51.889Z,11.35
2022-12-29T14:07:19.723Z,11.35
2022-12-29T14:09:47.581Z,11.37
2022-12-29T14:12:16.172Z,11.41
2022-12-29T14:14:44.100Z,11.43
2022-12-29T14:17:14.760Z,11.44
2022-12-29T14:19:43.527Z,11.42
2022-12-29T14:22:11.436Z,11.41
2022-12-29T14:24:39.527Z,11.39
2022-12-29T14:27:07.351Z,11.38
2022-12-29T14:29:35.341Z,11.38
2022-12-29T14:32:03.226Z,11.36
2022-12-29T14:34:31.348Z,11.35
2022-12-29T14:36:59.452Z,11.33
2022-12-29T14:39:27.695Z,11.33
2022-12-29T14:41:55.525Z,11.33
2022-12-29T14:44:23.476Z,11.34
2022-12-29T14:46:51.405Z,11.34
2022-12-29T14:49:19.669Z,11.34
2022-12-29T14:51:47.567Z,11.32
2022-12-29T14:54:15.323Z,11.32
2022-12-29T14:56:43.039Z,11.33
2022-12-29T14:59:10.999Z,11.34
2022-12-29T15:01:41.291Z,11.32
2022-12-29T15:04:10.329Z,11.31
2022-12-29T15:06:38.328Z,11.28
2022-12-29T15:09:06.085Z,11.26
2022-12-29T15:11:33.911Z,11.26
2022-12-29T15:14:02.643Z,11.24
2022-12-29T15:16:30.597Z,11.22
2022-12-29T15:18:58.570Z,11.21
2022-12-29T15:21:26.532Z,11.21
2022-12-29T15:23:54.879Z,11.19
2022-12-29T15:26:24.574Z,11.17
2022-12-29T15:28:52.375Z,11.13
2022-12-29T15:31:24.942Z,11.10
2022-12-29T15:33:57.582Z,11.08
2022-12-29T15:36:25.622Z,11.08
2022-12-29T15:38:53.440Z,11.05
2022-12-29T15:41:21.487Z,11.05
2022-12-29T15:43:49.482Z,11.03
2022-12-29T15:46:17.419Z,11.02
2022-12-29T15:48:46.157Z,11.01
2022-12-29T15:51:14.135Z,10.97
2022-12-29T15:53:42.000Z,10.96
2022-12-29T15:56:10.164Z,10.95
2022-12-29T15:58:38.037Z,10.94
2022-12-29T16:01:06.305Z,10.92
2022-12-29T16:03:34.468Z,10.91
2022-12-29T16:06:02.851Z,10.89
2022-12-29T16:08:30.867Z,10.88
2022-12-29T16:10:59.199Z,10.87
2022-12-29T16:13:27.655Z,10.86
2022-12-29T16:15:55.497Z,10.86
2022-12-29T16:18:23.590Z,10.84
2022-12-29T16:20:51.588Z,10.83
2022-12-29T16:23:19.500Z,10.84
2022-12-29T16:25:48.692Z,10.83
2022-12-29T16:28:16.829Z,10.82
2022-12-29T16:30:44.887Z,10.82
2022-12-29T16:33:12.937Z,10.81
2022-12-29T16:35:40.753Z,10.80
2022-12-29T16:38:09.348Z,10.79
2022-12-29T16:40:37.587Z,10.80
2022-12-29T16:43:05.599Z,10.80
2022-12-29T16:45:33.427Z,10.78
2022-12-29T16:48:01.480Z,10.77
2022-12-29T16:50:30.449Z,10.77
2022-12-29T16:52:58.462Z,10.77
2022-12-29T16:55:26.509Z,10.78
2022-12-29T16:57:54.720Z,10.78
2022-12-29T17:00:22.512Z,10.76
2022-12-29T17:02:51.539Z,10.75
2022-12-29T17:05:19.501Z,10.73
2022-12-29T17:07:47.414Z,10.72
2022-12-29T17:10:16.098Z,10.69
2022-12-29T17:12:44.164Z,10.68
2022-12-29T17:15:14.652Z,10.68
2022-12-29T17:17:42.618Z,10.66
2022-12-29T17:20:10.445Z,10.65
2022-12-29T17:22:38.401Z,10.64
2022-12-29T17:25:06.489Z,10.63
2022-12-29T17:27:34.908Z,10.62
2022-12-29T17:30:03.608Z,10.62
2022-12-29T17:32:31.563Z,10.62
2022-12-29T17:34:59.845Z,10.63
2022-12-29T17:37:27.689Z,10.63
2022-12-29T17:39:55.963Z,10.61
2022-12-29T17:42:23.918Z,10.60
2022-12-29T17:44:51.890Z,10.61
2022-12-29T17:47:19.857Z,10.59
2022-12-29T17:49:48.033Z,10.56
2022-12-29T17:52:16.504Z,10.57
2022-12-29T17:54:44.705Z,10.56
2022-12-29T17:57:12.890Z,10.53
2022-12-29T17:59:40.830Z,10.44
2022-12-29T18:02:08.835Z,10.15
2022-12-29T18:04:37.356Z,9.80
2022-12-29T18:07:05.113Z,9.41
2022-12-29T18:09:33.151Z,9.11
2022-12-29T18:12:01.061Z,8.94
2022-12-29T18:14:28.910Z,8.81
2022-12-29T18:16:57.569Z,8.73
2022-12-29T18:19:26.287Z,8.69
2022-12-29T18:21:56.406Z,8.69
2022-12-29T18:24:24.431Z,8.72
2022-12-29T18:26:52.229Z,8.84
2022-12-29T18:29:20.610Z,8.94
2022-12-29T18:31:48.670Z,9.00
2022-12-29T18:34:16.609Z,8.98
2022-12-29T18:36:44.420Z,8.96
2022-12-29T18:39:12.366Z,8.98
2022-12-29T18:41:42.183Z,8.92
2022-12-29T18:44:10.104Z,8.79
2022-12-29T18:46:38.062Z,8.65
2022-12-29T18:49:06.075Z,8.54
2022-12-29T18:51:33.813Z,8.43
2022-12-29T18:54:03.707Z,8.35
2022-12-29T18:56:31.666Z,8.22
2022-12-29T18:58:59.472Z,8.12
2022-12-29T19:01:28.447Z,8.01
2022-12-29T19:03:56.795Z,7.94
2022-12-29T19:06:25.436Z,7.88
2022-12-29T19:08:53.573Z,7.86
2022-12-29T19:11:21.466Z,7.84
2022-12-29T19:13:49.375Z,7.85
2022-12-29T19:16:17.424Z,7.87
2022-12-29T19:18:53.300Z,7.88
2022-12-29T19:21:26.441Z,7.91
2022-12-29T19:23:54.318Z,7.99
2022-12-29T19:26:22.261Z,8.06
2022-12-29T19:28:50.799Z,8.12
2022-12-29T19:31:18.711Z,8.14
2022-12-29T19:33:46.597Z,8.20
2022-12-29T19:36:15.895Z,8.25
2022-12-29T19:38:43.740Z,8.26
2022-12-29T19:41:12.083Z,8.26
2022-12-29T19:43:40.124Z,8.27
2022-12-29T19:46:08.385Z,8.26
2022-12-29T19:48:36.321Z,8.29
2022-12-29T19:51:04.367Z,8.32
2022-12-29T19:53:32.768Z,8.34
2022-12-29T19:56:00.692Z,8.38
2022-12-29T19:58:28.790Z,8.41
2022-12-29T20:00:56.718Z,8.40
2022-12-29T20:03:24.502Z,8.39
2022-12-29T20:05:53.029Z,8.35
2022-12-29T20:08:21.168Z,8.31
2022-12-29T20:10:49.081Z,8.30
2022-12-29T20:13:17.050Z,8.30
2022-12-29T20:15:44.922Z,8.32
2022-12-29T20:18:14.752Z,8.35
2022-12-29T20:20:43.376Z,8.36
2022-12-29T20:23:11.249Z,8.37
2022-12-29T20:25:47.294Z,8.37
2022-12-29T20:28:17.388Z,8.39
2022-12-29T20:30:45.307Z,8.38
2022-12-29T20:33:13.135Z,8.37
2022-12-29T20:35:41.067Z,8.35
2022-12-29T20:38:08.950Z,8.37
2022-12-29T20:40:44.164Z,8.36
2022-12-29T20:43:14.000Z,8.40
2022-12-29T20:45:41.956Z,8.42
2022-12-29T20:48:09.887Z,8.43
2022-12-29T20:50:38.309Z,8.42
2022-12-29T20:53:06.291Z,8.40
2022-12-29T20:55:34.120Z,8.40
2022-12-29T21:00:50.656Z,8.40
2022-12-29T21:03:18.818Z,8.38
2022-12-29T21:05:46.989Z,8.38
2022-12-29T21:08:15.735Z,8.36
2022-12-29T21:10:43.755Z,8.36
2022-12-29T21:13:11.724Z,8.36
2022-12-29T21:15:39.800Z,8.36
2022-12-29T21:18:07.694Z,8.35
2022-12-29T21:20:35.662Z,8.35
2022-12-29T21:23:03.625Z,8.36
2022-12-29T21:25:37.798Z,8.35
2022-12-29T21:28:05.804Z,8.37
2022-12-29T21:30:34.126Z,8.35
2022-12-29T21:33:02.316Z,8.35
2022-12-29T21:35:31.009Z,8.33
2022-12-29T21:37:59.414Z,8.35
2022-12-29T21:40:27.516Z,8.35
2022-12-29T21:42:55.360Z,8.35
2022-12-29T21:45:30.210Z,8.33
2022-12-29T21:48:15.612Z,8.33
2022-12-29T21:50:57.158Z,8.30
2022-12-29T21:53:38.140Z,8.27
2022-12-29T21:56:06.058Z,8.22
2022-12-29T21:58:51.587Z,8.21
2022-12-29T22:01:37.164Z,8.18
2022-12-29T22:04:22.434Z,8.18
2022-12-29T22:07:07.594Z,8.13
2022-12-29T22:09:52.970Z,8.11
2022-12-29T22:12:38.656Z,8.09
2022-12-29T22:15:06.610Z,8.08
2022-12-29T22:17:37.663Z,8.07
2022-12-29T22:20:06.074Z,8.06
2022-12-29T22:22:33.898Z,8.05
2022-12-29T22:25:02.996Z,8.03
2022-12-29T22:27:31.298Z,8.02
2022-12-29T22:29:59.201Z,7.99
2022-12-29T22:32:27.436Z,7.96
2022-12-29T22:34:56.418Z,7.94
2022-12-29T22:37:24.433Z,7.95
2022-12-29T22:39:52.616Z,7.94
2022-12-29T22:42:20.580Z,7.93
2022-12-29T22:44:49.058Z,7.90
2022-12-29T22:47:16.801Z,7.87
2022-12-29T22:49:44.888Z,7.84
2022-12-29T22:52:14.525Z,7.85
2022-12-29T22:54:42.817Z,7.87
2022-12-29T22:57:11.047Z,7.86
2022-12-29T22:59:40.478Z,7.86
2022-12-29T23:02:08.262Z,7.87
2022-12-29T23:05:04.484Z,7.84
2022-12-29T23:07:37.189Z,7.85
2022-12-29T23:10:05.761Z,7.83
2022-12-29T23:12:33.865Z,7.82
2022-12-29T23:15:02.219Z,7.79
2022-12-29T23:17:30.548Z,7.78
2022-12-29T23:19:59.262Z,7.78
2022-12-29T23:22:27.280Z,7.74
2022-12-29T23:24:55.287Z,7.72
2022-12-29T23:27:23.246Z,7.70
2022-12-29T23:29:51.158Z,7.69
2022-12-29T23:32:20.364Z,7.70
2022-12-29T23:34:48.370Z,7.68
2022-12-29T23:37:16.518Z,7.70
2022-12-29T23:39:45.333Z,7.70
2022-12-29T23:42:13.277Z,7.72
2022-12-29T23:44:42.051Z,7.71
2022-12-29T23:47:09.874Z,7.73
2022-12-29T23:49:38.014Z,7.72
2022-12-29T23:52:05.918Z,7.70
2022-12-29T23:54:33.857Z,7.72
2022-12-29T23:57:02.647Z,7.69
2022-12-29T23:59:30.556Z,7.66
